Главная страница
METAR-TAF:

METAR-TAF

Аэропорты :

Костанай, Казахстан

Наримановка

широта: 53-12-23N, долгота: 063-33-03E, высота над уровнем моря: 182 м

Текущие метеонаблюдения

Эта сводка был подготовлена 36 минут назад, в 16:30 UTC
Ветер 8 Узел от южный-юго-западный
Температура 15°C
Влажность 63%
Давление 1020 hPa
Видимость 10 км и более
Нет облачности ниже 1500 м, и нет кучево-дождевой облачности

METAR: UAUU 191630Z 20004MPS CAVOK 15/08 Q1020 R15/CLRD70 NOSIG RMK QFE749/0999

Время: 23:06 (17:06 UTC)

Прогноз

Эта сводка был подготовлена 3 часа и 6 минут назад, в 14:00 UTC
Прогноз действительный с 19-го 15 UTC до 19-го 24 UTC
Ветер 10 Узел от южный-юго-западный
Видимость 10 км и более
временами
С 19-го 15 UTC до 19-го 24 UTC
Ветер 17 Узел от юго-западный

TAF: UAUU 191400Z 1915/1924 20005MPS 9999 NSC TEMPO 1915/1924 22009MPS

Метеонаблюдения и прогнозы для более 4000 аэропортов (сводки METAR и TAF).

Имеющиеся станции представлены на карте желтыми и красными точками.

Чтобы увидеть название станции, наведите на нее мышь.

Затем щелкните, чтобы увидеть метеонаблюдения и метеопрогнозы.

Управление картой: чтобы увеличить масштаб, щелкните зеленые кнопки с черным крестиком; чтобы уменьшить масштаб, щелкните зеленую кнопку с тире; для просмотра соседних карт щелкайте зеленые стрелки.


METAR-TAF: